• Join FlightAware (Why Join?)
  • Login
  • US Flag 
07:31PM EST


 

Airport Tracker/Info


-or-


 

Live Flight TrackerFlight Track Log ✈ N42HN ✈ 30-08-2013 ✈ KLUK - KLZU

Flight Track Log - Related Links

Times and Time Zones

All times are in EDT time to prevent confusion due to time zone crossing. See the N42HN flight status page for this flight to view local times or setup timezone preferences in your user account.

Time Position Orientation Groundspeed Altitude Reporting Facility
EDT Latitude Longitude Course Direction KTS MPH feet Rate Location/Type
11:55AM 39.0833 -84.4167 207° Southwest 171 197 1,400  Level Cincinnati TRACON
11:56AM 39.0333 -84.4500 207° Southwest 225 259 2,500 600 Climbing Cincinnati TRACON
11:57AM 38.9833 -84.4500 180° South 230 265 2,500 1,140 Level Cincinnati TRACON
11:58AM 38.9167 -84.4333 169° South 234 269 4,700 2,640 Climbing Cincinnati TRACON
11:59AM 38.8678 -84.4311 178° South 269 310 6,900 3,060 Climbing Indianapolis Center
12:00PM 38.7889 -84.4150 171° South 282 325 10,000 2,700 Climbing Indianapolis Center
12:01PM 38.7028 -84.3989 172° South 304 350 12,500 2,400 Climbing Indianapolis Center
12:02PM 38.6061 -84.3803 171° South 345 397 15,000 2,580 Climbing Indianapolis Center
12:03PM 38.4919 -84.3592 172° South 354 407 17,900 2,520 Climbing Indianapolis Center
12:04PM 38.3897 -84.3383 171° South 366 421 20,300 1,980 Climbing Indianapolis Center
12:05PM 38.2839 -84.3208 173° South 379 436 22,100 1,260 Climbing Indianapolis Center
12:06PM 38.1703 -84.3022 173° South 403 464 22,900 1,560 Climbing Indianapolis Center
12:07PM 38.0531 -84.2764 170° South 422 486 25,300 2,100 Climbing Indianapolis Center
12:08PM 37.9411 -84.2594 173° South 410 472 27,300 1,740 Climbing Indianapolis Center
12:09PM 37.8094 -84.2328 171° South 410 472 28,900 1,260 Climbing Indianapolis Center
12:10PM 37.6931 -84.2122 172° South 421 484 29,900 480 Climbing Indianapolis Center
12:11PM 37.5711 -84.1900 172° South 439 505 30,000  Climbing Indianapolis Center
12:12PM 37.4467 -84.1658 171° South 450 518 30,000  Level Indianapolis Center
12:13PM 37.3231 -84.1450 172° South 449 517 30,000  Level Indianapolis Center
12:14PM 37.1842 -84.1197 172° South 435 501 30,000  Level Indianapolis Center
12:15PM 37.0664 -84.0983 172° South 430 495 30,000  Level Indianapolis Center
12:16PM 36.9506 -84.0792 172° South 423 487 30,000  Level Indianapolis Center
12:17PM 36.8364 -84.0592 172° South 417 480 30,000  Level Indianapolis Center
12:18PM 36.7203 -84.0389 172° South 418 481 30,000  Level Indianapolis Center
12:20PM 36.5858 -84.0142 172° South 417 480 30,000  Level Indianapolis Center
12:21PM 36.4731 -83.9944 172° South 415 478 30,000  Level Indianapolis Center
12:22PM 36.3564 -83.9750 172° South 420 483 30,000  Level Indianapolis Center
12:23PM 36.2381 -83.9544 172° South 424 488 30,000 -120 Level Indianapolis Center
12:24PM 36.1181 -83.9322 171° South 431 496 29,800 -1,080 Descending Indianapolis Center
12:24PM 36.0417 -83.9206 173° South 429 494 28,300 -2,100 Descending Atlanta Center
12:25PM 35.9164 -83.9003 173° South 443 510 26,500 -1,800 Descending Atlanta Center
12:26PM 35.7911 -83.8722 170° South 450 518 24,800 -1,440 Descending Atlanta Center
12:27PM 35.6658 -83.8469 171° South 455 524 23,700 -1,500 Descending Atlanta Center
12:28PM 35.5386 -83.8192 170° South 460 529 21,800 -1,380 Descending Atlanta Center
12:29PM 35.4156 -83.7942 171° South 465 535 21,000 -420 Descending Atlanta Center
12:30PM 35.2903 -83.7742 173° South 465 535 21,000  Level Atlanta Center
12:31PM 35.1714 -83.7922 187° South 444 511 21,000  Level Atlanta Center
12:32PM 35.0525 -83.8103 187° South 444 511 21,000  Level Atlanta Center
12:33PM 34.9189 -83.8286 186° South 444 511 21,000 -960 Level Atlanta Center
12:34PM 34.8083 -83.8439 186° South 444 511 19,100 -2,340 Descending Atlanta Center
12:35PM 34.6769 -83.8644 187° South 450 518 16,400 -3,000 Descending Atlanta Center
12:36PM 34.5581 -83.8800 186° South 441 507 13,200 -2,760 Descending Atlanta Center
12:37PM 34.4558 -83.8953 187° South 401 461 10,900 -1,980 Descending Atlanta Center
12:38PM 34.3703 -83.9081 187° South 352 405 9,300 -1,860 Descending Atlanta Center
12:39PM 34.2889 -83.9181 186° South 308 354 7,200 -1,680 Descending Atlanta Center
12:40PM 34.2178 -83.9483 199° South 288 331 6,000 -840 Descending Atlanta Center
12:41PM 34.1594 -83.9961 214° Southwest 260 299 5,600 -600 Descending Atlanta Center
12:42PM 34.1167 -84.0333 216° Southwest 251 289 5,000 -480 Descending Atlanta TRACON
12:43PM 34.0667 -84.0667 209° Southwest 235 270 4,900 -840 Descending Atlanta TRACON
12:44PM 34.0333 -84.1333 239° Southwest 244 281 3,400 -960 Descending Atlanta TRACON
12:45PM 33.9667 -84.1833 212° Southwest 239 275 3,000 -240 Descending Atlanta TRACON
12:46PM 33.9333 -84.1500 140° Southeast 194 223 3,000  Level Atlanta TRACON
12:47PM 33.9333 -84.1000 90° East 151 174 3,000 -120 Level Atlanta TRACON
12:48PM 33.9333 -84.0500 90° East 145 167 2,800 -600 Descending Atlanta TRACON
12:49PM 33.9500 -84.0167 59° Northeast 138 159 1,800 -1,020 Descending Atlanta TRACON
12:51PM 33.9667 -83.9500 180° South  Level FlightAware Approximate
12:58PM 33.9781 -83.9624 180° South  Level Estimated